sensor_id;sensor_type;location;lat;lon;timestamp;temperature;humidity
44747;DHT22;30472;49.490;10.972;2023-06-14T00:01:02;14.80;99.90
44747;DHT22;30472;49.490;10.972;2023-06-14T00:03:28;14.60;99.90
44747;DHT22;30472;49.490;10.972;2023-06-14T00:05:54;14.50;99.90
44747;DHT22;30472;49.490;10.972;2023-06-14T00:08:20;14.40;99.90
44747;DHT22;30472;49.490;10.972;2023-06-14T00:10:48;14.30;99.90
44747;DHT22;30472;49.490;10.972;2023-06-14T00:13:14;14.20;99.90
44747;DHT22;30472;49.490;10.972;2023-06-14T00:15:40;14.10;99.90
44747;DHT22;30472;49.490;10.972;2023-06-14T00:18:06;14.00;99.90
44747;DHT22;30472;49.490;10.972;2023-06-14T00:20:33;13.90;99.90
44747;DHT22;30472;49.490;10.972;2023-06-14T00:23:02;13.80;99.90
44747;DHT22;30472;49.490;10.972;2023-06-14T00:25:28;13.70;99.90
44747;DHT22;30472;49.490;10.972;2023-06-14T00:27:55;13.70;99.90
44747;DHT22;30472;49.490;10.972;2023-06-14T00:30:20;13.60;99.90
44747;DHT22;30472;49.490;10.972;2023-06-14T00:32:47;13.50;99.90
44747;DHT22;30472;49.490;10.972;2023-06-14T00:35:12;13.50;99.90
44747;DHT22;30472;49.490;10.972;2023-06-14T00:37:39;13.40;99.90
44747;DHT22;30472;49.490;10.972;2023-06-14T00:40:05;13.40;99.90
44747;DHT22;30472;49.490;10.972;2023-06-14T00:42:31;13.40;99.90
44747;DHT22;30472;49.490;10.972;2023-06-14T00:44:57;13.40;99.90
44747;DHT22;30472;49.490;10.972;2023-06-14T00:47:22;13.30;99.90
44747;DHT22;30472;49.490;10.972;2023-06-14T00:49:49;13.20;99.90
44747;DHT22;30472;49.490;10.972;2023-06-14T00:52:16;13.20;99.90
44747;DHT22;30472;49.490;10.972;2023-06-14T00:54:43;13.10;99.90
44747;DHT22;30472;49.490;10.972;2023-06-14T00:57:09;13.10;99.90
44747;DHT22;30472;49.490;10.972;2023-06-14T00:59:42;13.00;99.90
44747;DHT22;30472;49.490;10.972;2023-06-14T01:02:08;13.00;99.90
44747;DHT22;30472;49.490;10.972;2023-06-14T01:04:33;13.10;99.90
44747;DHT22;30472;49.490;10.972;2023-06-14T01:07:15;13.00;99.90
44747;DHT22;30472;49.490;10.972;2023-06-14T01:12:55;13.00;99.90
44747;DHT22;30472;49.490;10.972;2023-06-14T01:15:25;13.00;99.90
44747;DHT22;30472;49.490;10.972;2023-06-14T01:17:52;12.80;99.90
44747;DHT22;30472;49.490;10.972;2023-06-14T01:20:22;12.80;99.90
44747;DHT22;30472;49.490;10.972;2023-06-14T01:22:52;12.70;99.90
44747;DHT22;30472;49.490;10.972;2023-06-14T01:25:19;12.60;99.90
44747;DHT22;30472;49.490;10.972;2023-06-14T01:28:03;12.60;99.90
44747;DHT22;30472;49.490;10.972;2023-06-14T01:30:30;12.50;99.90
44747;DHT22;30472;49.490;10.972;2023-06-14T01:32:58;12.50;99.90
44747;DHT22;30472;49.490;10.972;2023-06-14T01:35:24;12.30;99.90
44747;DHT22;30472;49.490;10.972;2023-06-14T01:37:51;12.30;99.90
44747;DHT22;30472;49.490;10.972;2023-06-14T01:40:19;12.30;99.90
44747;DHT22;30472;49.490;10.972;2023-06-14T01:42:47;12.20;99.90
44747;DHT22;30472;49.490;10.972;2023-06-14T01:45:15;12.20;99.90
44747;DHT22;30472;49.490;10.972;2023-06-14T01:47:41;12.20;99.90
44747;DHT22;30472;49.490;10.972;2023-06-14T01:50:07;12.20;99.90
44747;DHT22;30472;49.490;10.972;2023-06-14T01:52:33;12.20;99.90
44747;DHT22;30472;49.490;10.972;2023-06-14T01:54:58;12.10;99.90
44747;DHT22;30472;49.490;10.972;2023-06-14T01:57:27;12.10;99.90
44747;DHT22;30472;49.490;10.972;2023-06-14T01:59:53;12.20;99.90
44747;DHT22;30472;49.490;10.972;2023-06-14T02:02:19;12.20;99.90
44747;DHT22;30472;49.490;10.972;2023-06-14T02:04:44;12.10;99.90
44747;DHT22;30472;49.490;10.972;2023-06-14T02:07:12;12.10;99.90
44747;DHT22;30472;49.490;10.972;2023-06-14T02:09:38;12.10;99.90
44747;DHT22;30472;49.490;10.972;2023-06-14T02:12:04;12.00;99.90
44747;DHT22;30472;49.490;10.972;2023-06-14T02:14:30;11.90;99.90
44747;DHT22;30472;49.490;10.972;2023-06-14T02:16:56;12.00;99.90
44747;DHT22;30472;49.490;10.972;2023-06-14T02:19:21;11.80;99.90
44747;DHT22;30472;49.490;10.972;2023-06-14T02:21:47;11.80;99.90
44747;DHT22;30472;49.490;10.972;2023-06-14T02:24:13;11.70;99.90
44747;DHT22;30472;49.490;10.972;2023-06-14T02:26:39;11.70;99.90
44747;DHT22;30472;49.490;10.972;2023-06-14T02:29:05;11.70;99.90
44747;DHT22;30472;49.490;10.972;2023-06-14T02:31:32;11.60;99.90
44747;DHT22;30472;49.490;10.972;2023-06-14T02:33:58;11.60;99.90
44747;DHT22;30472;49.490;10.972;2023-06-14T02:36:23;11.60;99.90
44747;DHT22;30472;49.490;10.972;2023-06-14T02:38:49;11.60;99.90
44747;DHT22;30472;49.490;10.972;2023-06-14T02:41:15;11.70;99.90
44747;DHT22;30472;49.490;10.972;2023-06-14T02:43:40;11.60;99.90
44747;DHT22;30472;49.490;10.972;2023-06-14T02:46:06;11.70;99.90
44747;DHT22;30472;49.490;10.972;2023-06-14T02:48:32;11.80;99.90
44747;DHT22;30472;49.490;10.972;2023-06-14T02:50:58;11.80;99.90
44747;DHT22;30472;49.490;10.972;2023-06-14T02:53:23;11.70;99.90
44747;DHT22;30472;49.490;10.972;2023-06-14T02:55:49;11.70;99.90
44747;DHT22;30472;49.490;10.972;2023-06-14T02:58:14;11.60;99.90
44747;DHT22;30472;49.490;10.972;2023-06-14T03:00:41;11.70;99.90
44747;DHT22;30472;49.490;10.972;2023-06-14T03:03:08;11.60;99.90
44747;DHT22;30472;49.490;10.972;2023-06-14T03:05:44;11.60;99.90
44747;DHT22;30472;49.490;10.972;2023-06-14T03:08:15;11.60;99.90
44747;DHT22;30472;49.490;10.972;2023-06-14T03:10:49;11.50;99.90
44747;DHT22;30472;49.490;10.972;2023-06-14T03:13:15;11.50;99.90
44747;DHT22;30472;49.490;10.972;2023-06-14T03:15:42;11.50;99.90
44747;DHT22;30472;49.490;10.972;2023-06-14T03:18:08;11.50;99.90
44747;DHT22;30472;49.490;10.972;2023-06-14T03:20:35;11.50;99.90
44747;DHT22;30472;49.490;10.972;2023-06-14T03:23:01;11.50;99.90
44747;DHT22;30472;49.490;10.972;2023-06-14T03:25:27;11.50;99.90
44747;DHT22;30472;49.490;10.972;2023-06-14T03:27:55;11.50;99.90
44747;DHT22;30472;49.490;10.972;2023-06-14T03:30:21;11.50;99.90
44747;DHT22;30472;49.490;10.972;2023-06-14T03:32:47;11.50;99.90
44747;DHT22;30472;49.490;10.972;2023-06-14T03:35:12;11.50;99.90
44747;DHT22;30472;49.490;10.972;2023-06-14T03:37:45;11.50;99.90
44747;DHT22;30472;49.490;10.972;2023-06-14T03:40:12;11.50;99.90
44747;DHT22;30472;49.490;10.972;2023-06-14T03:42:39;11.50;99.90
44747;DHT22;30472;49.490;10.972;2023-06-14T03:45:05;11.40;99.90
44747;DHT22;30472;49.490;10.972;2023-06-14T03:47:34;11.50;99.90
44747;DHT22;30472;49.490;10.972;2023-06-14T03:49:59;11.40;99.90
44747;DHT22;30472;49.490;10.972;2023-06-14T03:52:26;11.50;99.90
44747;DHT22;30472;49.490;10.972;2023-06-14T03:54:52;11.50;99.90
44747;DHT22;30472;49.490;10.972;2023-06-14T03:57:18;11.50;99.90
44747;DHT22;30472;49.490;10.972;2023-06-14T03:59:44;11.50;99.90
44747;DHT22;30472;49.490;10.972;2023-06-14T04:02:09;11.60;99.90
44747;DHT22;30472;49.490;10.972;2023-06-14T04:04:35;11.70;99.90
44747;DHT22;30472;49.490;10.972;2023-06-14T04:07:01;11.70;99.90
44747;DHT22;30472;49.490;10.972;2023-06-14T04:09:29;11.70;99.90
44747;DHT22;30472;49.490;10.972;2023-06-14T04:11:54;11.70;99.90
44747;DHT22;30472;49.490;10.972;2023-06-14T04:14:21;11.70;99.90
44747;DHT22;30472;49.490;10.972;2023-06-14T04:16:47;11.90;99.90
44747;DHT22;30472;49.490;10.972;2023-06-14T04:19:13;12.00;99.90
44747;DHT22;30472;49.490;10.972;2023-06-14T04:21:39;12.00;99.90
44747;DHT22;30472;49.490;10.972;2023-06-14T04:24:05;12.10;99.90
44747;DHT22;30472;49.490;10.972;2023-06-14T04:26:30;12.10;99.90
44747;DHT22;30472;49.490;10.972;2023-06-14T04:29:02;12.20;99.90
44747;DHT22;30472;49.490;10.972;2023-06-14T04:31:31;12.30;99.90
44747;DHT22;30472;49.490;10.972;2023-06-14T04:33:59;12.30;99.90
44747;DHT22;30472;49.490;10.972;2023-06-14T04:36:25;12.50;99.90
44747;DHT22;30472;49.490;10.972;2023-06-14T04:38:52;12.50;99.90
44747;DHT22;30472;49.490;10.972;2023-06-14T04:41:21;12.50;99.90
44747;DHT22;30472;49.490;10.972;2023-06-14T04:43:48;12.60;99.90
44747;DHT22;30472;49.490;10.972;2023-06-14T04:46:14;12.70;99.90
44747;DHT22;30472;49.490;10.972;2023-06-14T04:48:41;12.80;99.90
44747;DHT22;30472;49.490;10.972;2023-06-14T04:51:08;12.80;99.90
44747;DHT22;30472;49.490;10.972;2023-06-14T04:53:35;12.90;99.90
44747;DHT22;30472;49.490;10.972;2023-06-14T04:56:01;12.90;99.90
44747;DHT22;30472;49.490;10.972;2023-06-14T04:58:30;12.90;99.90
44747;DHT22;30472;49.490;10.972;2023-06-14T05:00:56;12.90;99.90
44747;DHT22;30472;49.490;10.972;2023-06-14T05:03:22;13.00;99.90
44747;DHT22;30472;49.490;10.972;2023-06-14T05:05:49;13.00;99.90
44747;DHT22;30472;49.490;10.972;2023-06-14T05:08:16;13.00;99.90
44747;DHT22;30472;49.490;10.972;2023-06-14T05:10:41;13.10;99.90
44747;DHT22;30472;49.490;10.972;2023-06-14T05:13:07;13.20;99.90
44747;DHT22;30472;49.490;10.972;2023-06-14T05:15:33;13.20;99.90
44747;DHT22;30472;49.490;10.972;2023-06-14T05:17:59;13.20;99.90
44747;DHT22;30472;49.490;10.972;2023-06-14T05:20:25;13.30;99.90
44747;DHT22;30472;49.490;10.972;2023-06-14T05:22:52;13.40;99.90
44747;DHT22;30472;49.490;10.972;2023-06-14T05:25:19;13.40;99.90
44747;DHT22;30472;49.490;10.972;2023-06-14T05:27:45;13.60;99.90
44747;DHT22;30472;49.490;10.972;2023-06-14T05:30:11;13.80;99.90
44747;DHT22;30472;49.490;10.972;2023-06-14T05:32:37;14.00;99.90
44747;DHT22;30472;49.490;10.972;2023-06-14T05:35:03;14.10;99.90
44747;DHT22;30472;49.490;10.972;2023-06-14T05:37:29;14.20;99.90
44747;DHT22;30472;49.490;10.972;2023-06-14T05:39:56;14.40;99.90
44747;DHT22;30472;49.490;10.972;2023-06-14T05:42:21;14.50;99.90
44747;DHT22;30472;49.490;10.972;2023-06-14T05:44:47;14.60;99.90
44747;DHT22;30472;49.490;10.972;2023-06-14T05:47:12;14.60;99.90
44747;DHT22;30472;49.490;10.972;2023-06-14T05:49:38;14.70;99.90
44747;DHT22;30472;49.490;10.972;2023-06-14T05:52:04;14.90;99.90
44747;DHT22;30472;49.490;10.972;2023-06-14T05:54:30;15.00;99.90
44747;DHT22;30472;49.490;10.972;2023-06-14T05:56:55;15.00;99.90
44747;DHT22;30472;49.490;10.972;2023-06-14T05:59:29;15.00;99.90
44747;DHT22;30472;49.490;10.972;2023-06-14T06:01:55;15.10;99.90
44747;DHT22;30472;49.490;10.972;2023-06-14T06:04:20;15.20;99.90
44747;DHT22;30472;49.490;10.972;2023-06-14T06:06:46;15.40;99.90
44747;DHT22;30472;49.490;10.972;2023-06-14T06:09:13;15.80;99.90
44747;DHT22;30472;49.490;10.972;2023-06-14T06:11:40;16.10;99.90
44747;DHT22;30472;49.490;10.972;2023-06-14T06:14:05;16.30;99.90
44747;DHT22;30472;49.490;10.972;2023-06-14T06:16:31;16.80;99.90
44747;DHT22;30472;49.490;10.972;2023-06-14T06:18:56;17.20;99.90
44747;DHT22;30472;49.490;10.972;2023-06-14T06:21:22;18.20;99.90
44747;DHT22;30472;49.490;10.972;2023-06-14T06:23:47;19.00;99.90
44747;DHT22;30472;49.490;10.972;2023-06-14T06:26:13;19.50;99.90
44747;DHT22;30472;49.490;10.972;2023-06-14T06:28:39;19.70;99.90
44747;DHT22;30472;49.490;10.972;2023-06-14T06:31:04;20.20;99.90
44747;DHT22;30472;49.490;10.972;2023-06-14T06:33:30;20.40;99.90
44747;DHT22;30472;49.490;10.972;2023-06-14T06:35:56;21.60;99.90
44747;DHT22;30472;49.490;10.972;2023-06-14T06:38:21;21.60;99.90
44747;DHT22;30472;49.490;10.972;2023-06-14T06:40:47;22.20;99.90
44747;DHT22;30472;49.490;10.972;2023-06-14T06:43:12;21.70;99.90
44747;DHT22;30472;49.490;10.972;2023-06-14T06:45:42;22.00;99.90
44747;DHT22;30472;49.490;10.972;2023-06-14T06:48:08;21.60;99.90
44747;DHT22;30472;49.490;10.972;2023-06-14T06:50:35;21.80;99.90
44747;DHT22;30472;49.490;10.972;2023-06-14T06:53:01;21.90;99.90
44747;DHT22;30472;49.490;10.972;2023-06-14T06:55:27;22.00;99.90
44747;DHT22;30472;49.490;10.972;2023-06-14T06:57:53;22.30;99.90
44747;DHT22;30472;49.490;10.972;2023-06-14T07:00:19;22.80;99.90
44747;DHT22;30472;49.490;10.972;2023-06-14T07:02:45;22.90;99.90
44747;DHT22;30472;49.490;10.972;2023-06-14T07:05:11;23.00;99.90
44747;DHT22;30472;49.490;10.972;2023-06-14T07:07:36;23.10;99.90
44747;DHT22;30472;49.490;10.972;2023-06-14T07:10:03;23.60;99.90
44747;DHT22;30472;49.490;10.972;2023-06-14T07:12:33;23.50;99.90
44747;DHT22;30472;49.490;10.972;2023-06-14T07:15:01;24.10;99.90
44747;DHT22;30472;49.490;10.972;2023-06-14T07:17:27;22.80;99.90
44747;DHT22;30472;49.490;10.972;2023-06-14T07:19:52;24.20;99.90
44747;DHT22;30472;49.490;10.972;2023-06-14T07:22:19;23.50;99.90
44747;DHT22;30472;49.490;10.972;2023-06-14T07:24:45;23.70;99.90
44747;DHT22;30472;49.490;10.972;2023-06-14T07:27:10;24.10;99.90
44747;DHT22;30472;49.490;10.972;2023-06-14T07:29:36;23.80;99.90
44747;DHT22;30472;49.490;10.972;2023-06-14T07:32:02;24.60;99.90
44747;DHT22;30472;49.490;10.972;2023-06-14T07:34:28;25.40;99.90
44747;DHT22;30472;49.490;10.972;2023-06-14T07:36:53;25.40;99.90
44747;DHT22;30472;49.490;10.972;2023-06-14T07:39:19;25.90;99.90
44747;DHT22;30472;49.490;10.972;2023-06-14T07:41:45;25.80;99.90
44747;DHT22;30472;49.490;10.972;2023-06-14T07:44:10;24.70;99.90
44747;DHT22;30472;49.490;10.972;2023-06-14T07:46:37;25.30;99.90
44747;DHT22;30472;49.490;10.972;2023-06-14T07:49:03;25.60;99.90
44747;DHT22;30472;49.490;10.972;2023-06-14T07:51:29;25.40;99.90
44747;DHT22;30472;49.490;10.972;2023-06-14T07:53:54;26.10;99.90
44747;DHT22;30472;49.490;10.972;2023-06-14T07:56:20;25.70;99.90
44747;DHT22;30472;49.490;10.972;2023-06-14T07:58:46;25.40;99.90
44747;DHT22;30472;49.490;10.972;2023-06-14T08:01:12;25.90;99.90
44747;DHT22;30472;49.490;10.972;2023-06-14T08:03:38;25.00;99.90
44747;DHT22;30472;49.490;10.972;2023-06-14T08:06:03;25.10;99.90
44747;DHT22;30472;49.490;10.972;2023-06-14T08:08:29;25.30;99.90
44747;DHT22;30472;49.490;10.972;2023-06-14T08:10:55;25.80;99.90
44747;DHT22;30472;49.490;10.972;2023-06-14T08:13:21;26.40;99.90
44747;DHT22;30472;49.490;10.972;2023-06-14T08:15:47;27.10;99.90
44747;DHT22;30472;49.490;10.972;2023-06-14T08:18:12;27.10;99.90
44747;DHT22;30472;49.490;10.972;2023-06-14T08:20:38;26.90;99.90
44747;DHT22;30472;49.490;10.972;2023-06-14T08:23:03;26.50;99.90
44747;DHT22;30472;49.490;10.972;2023-06-14T08:25:30;27.60;99.90
44747;DHT22;30472;49.490;10.972;2023-06-14T08:27:55;27.40;99.90
44747;DHT22;30472;49.490;10.972;2023-06-14T08:30:22;26.90;99.90
44747;DHT22;30472;49.490;10.972;2023-06-14T08:32:47;26.40;99.90
44747;DHT22;30472;49.490;10.972;2023-06-14T08:35:13;26.20;99.90
44747;DHT22;30472;49.490;10.972;2023-06-14T08:37:40;26.30;99.90
44747;DHT22;30472;49.490;10.972;2023-06-14T08:40:19;27.10;99.90
44747;DHT22;30472;49.490;10.972;2023-06-14T08:42:48;26.70;99.90
44747;DHT22;30472;49.490;10.972;2023-06-14T08:45:15;25.80;99.90
44747;DHT22;30472;49.490;10.972;2023-06-14T08:47:41;26.30;99.90
44747;DHT22;30472;49.490;10.972;2023-06-14T08:50:07;26.10;99.90
44747;DHT22;30472;49.490;10.972;2023-06-14T08:52:37;26.90;99.90
44747;DHT22;30472;49.490;10.972;2023-06-14T08:55:06;26.20;99.90
44747;DHT22;30472;49.490;10.972;2023-06-14T08:57:36;26.00;99.90
44747;DHT22;30472;49.490;10.972;2023-06-14T09:00:03;26.60;99.90
44747;DHT22;30472;49.490;10.972;2023-06-14T09:02:39;27.50;99.20
44747;DHT22;30472;49.490;10.972;2023-06-14T09:05:11;28.40;98.20
44747;DHT22;30472;49.490;10.972;2023-06-14T09:07:41;26.30;98.20
44747;DHT22;30472;49.490;10.972;2023-06-14T09:10:12;26.30;98.20
44747;DHT22;30472;49.490;10.972;2023-06-14T09:12:38;26.00;99.10
44747;DHT22;30472;49.490;10.972;2023-06-14T09:15:05;26.90;98.90
44747;DHT22;30472;49.490;10.972;2023-06-14T09:17:34;27.10;99.30
44747;DHT22;30472;49.490;10.972;2023-06-14T09:20:01;27.10;98.70
44747;DHT22;30472;49.490;10.972;2023-06-14T09:22:30;27.40;97.70
44747;DHT22;30472;49.490;10.972;2023-06-14T09:24:56;28.30;97.60
44747;DHT22;30472;49.490;10.972;2023-06-14T09:27:21;28.10;95.90
44747;DHT22;30472;49.490;10.972;2023-06-14T09:29:47;28.60;95.80
44747;DHT22;30472;49.490;10.972;2023-06-14T09:32:12;28.00;95.30
44747;DHT22;30472;49.490;10.972;2023-06-14T09:34:38;26.40;97.10
44747;DHT22;30472;49.490;10.972;2023-06-14T09:37:04;24.70;98.70
44747;DHT22;30472;49.490;10.972;2023-06-14T09:39:30;24.20;98.50
44747;DHT22;30472;49.490;10.972;2023-06-14T09:41:55;25.30;98.70
44747;DHT22;30472;49.490;10.972;2023-06-14T09:44:21;25.00;97.90
44747;DHT22;30472;49.490;10.972;2023-06-14T09:46:50;24.50;98.70
44747;DHT22;30472;49.490;10.972;2023-06-14T09:49:16;24.50;98.50
44747;DHT22;30472;49.490;10.972;2023-06-14T09:51:43;24.20;99.10
44747;DHT22;30472;49.490;10.972;2023-06-14T09:54:15;23.80;99.20
44747;DHT22;30472;49.490;10.972;2023-06-14T09:56:47;23.50;99.30
44747;DHT22;30472;49.490;10.972;2023-06-14T09:59:18;24.30;99.00
44747;DHT22;30472;49.490;10.972;2023-06-14T10:01:46;23.10;99.50
44747;DHT22;30472;49.490;10.972;2023-06-14T10:04:13;22.80;99.90
44747;DHT22;30472;49.490;10.972;2023-06-14T10:06:45;22.70;99.90
44747;DHT22;30472;49.490;10.972;2023-06-14T10:09:11;22.80;99.30
44747;DHT22;30472;49.490;10.972;2023-06-14T10:11:37;23.10;99.70
44747;DHT22;30472;49.490;10.972;2023-06-14T10:14:11;23.80;99.30
44747;DHT22;30472;49.490;10.972;2023-06-14T10:22:06;26.70;97.10
44747;DHT22;30472;49.490;10.972;2023-06-14T10:24:45;27.00;96.70
44747;DHT22;30472;49.490;10.972;2023-06-14T10:27:14;27.20;96.00
44747;DHT22;30472;49.490;10.972;2023-06-14T10:32:21;27.00;95.90
44747;DHT22;30472;49.490;10.972;2023-06-14T10:35:00;26.70;95.10
44747;DHT22;30472;49.490;10.972;2023-06-14T10:37:26;24.90;96.70
44747;DHT22;30472;49.490;10.972;2023-06-14T10:39:52;24.90;96.90
44747;DHT22;30472;49.490;10.972;2023-06-14T10:42:18;24.60;97.10
44747;DHT22;30472;49.490;10.972;2023-06-14T10:47:20;24.10;96.70
44747;DHT22;30472;49.490;10.972;2023-06-14T10:49:50;24.40;97.40
44747;DHT22;30472;49.490;10.972;2023-06-14T10:52:19;24.40;96.90
44747;DHT22;30472;49.490;10.972;2023-06-14T10:57:29;24.60;97.00
44747;DHT22;30472;49.490;10.972;2023-06-14T10:59:57;25.60;96.90
44747;DHT22;30472;49.490;10.972;2023-06-14T11:05:30;26.90;95.10
44747;DHT22;30472;49.490;10.972;2023-06-14T11:08:23;27.00;94.30
44747;DHT22;30472;49.490;10.972;2023-06-14T11:10:53;27.00;94.50
44747;DHT22;30472;49.490;10.972;2023-06-14T11:13:19;26.70;94.60
44747;DHT22;30472;49.490;10.972;2023-06-14T11:15:47;26.30;94.70
44747;DHT22;30472;49.490;10.972;2023-06-14T11:18:13;26.10;95.10
44747;DHT22;30472;49.490;10.972;2023-06-14T11:20:40;25.30;95.40
44747;DHT22;30472;49.490;10.972;2023-06-14T11:23:06;24.70;96.00
44747;DHT22;30472;49.490;10.972;2023-06-14T11:25:32;24.80;96.10
44747;DHT22;30472;49.490;10.972;2023-06-14T11:27:58;24.80;95.80
44747;DHT22;30472;49.490;10.972;2023-06-14T11:30:24;25.00;96.80
44747;DHT22;30472;49.490;10.972;2023-06-14T11:32:52;25.00;95.90
44747;DHT22;30472;49.490;10.972;2023-06-14T11:35:19;24.80;95.60
44747;DHT22;30472;49.490;10.972;2023-06-14T11:37:48;24.90;95.70
44747;DHT22;30472;49.490;10.972;2023-06-14T11:40:14;25.50;95.60
44747;DHT22;30472;49.490;10.972;2023-06-14T11:42:41;25.90;95.20
44747;DHT22;30472;49.490;10.972;2023-06-14T11:45:08;27.10;94.20
44747;DHT22;30472;49.490;10.972;2023-06-14T11:47:34;26.40;94.00
44747;DHT22;30472;49.490;10.972;2023-06-14T11:50:01;26.40;94.10
44747;DHT22;30472;49.490;10.972;2023-06-14T11:52:27;25.90;94.70
44747;DHT22;30472;49.490;10.972;2023-06-14T11:54:53;25.50;94.30
44747;DHT22;30472;49.490;10.972;2023-06-14T11:57:19;25.00;94.90
44747;DHT22;30472;49.490;10.972;2023-06-14T11:59:46;24.90;94.70
44747;DHT22;30472;49.490;10.972;2023-06-14T12:02:15;25.60;94.30
44747;DHT22;30472;49.490;10.972;2023-06-14T12:04:42;25.50;94.90
44747;DHT22;30472;49.490;10.972;2023-06-14T12:07:11;25.50;94.50
44747;DHT22;30472;49.490;10.972;2023-06-14T12:10:03;25.10;94.00
44747;DHT22;30472;49.490;10.972;2023-06-14T12:12:26;25.90;94.50
44747;DHT22;30472;49.490;10.972;2023-06-14T12:14:53;26.70;93.60
44747;DHT22;30472;49.490;10.972;2023-06-14T12:17:18;26.60;93.20
44747;DHT22;30472;49.490;10.972;2023-06-14T12:19:45;25.20;92.70
44747;DHT22;30472;49.490;10.972;2023-06-14T12:22:12;25.90;92.90
44747;DHT22;30472;49.490;10.972;2023-06-14T12:24:38;26.00;92.00
44747;DHT22;30472;49.490;10.972;2023-06-14T12:27:05;26.10;92.10
44747;DHT22;30472;49.490;10.972;2023-06-14T12:29:31;26.00;91.30
44747;DHT22;30472;49.490;10.972;2023-06-14T12:31:57;25.20;91.90
44747;DHT22;30472;49.490;10.972;2023-06-14T12:34:23;25.70;92.60
44747;DHT22;30472;49.490;10.972;2023-06-14T12:36:53;26.40;93.00
44747;DHT22;30472;49.490;10.972;2023-06-14T12:39:19;25.80;92.40
44747;DHT22;30472;49.490;10.972;2023-06-14T12:41:45;25.70;92.80
44747;DHT22;30472;49.490;10.972;2023-06-14T12:44:11;25.30;92.50
44747;DHT22;30472;49.490;10.972;2023-06-14T12:46:37;25.30;92.40
44747;DHT22;30472;49.490;10.972;2023-06-14T12:49:05;24.70;92.10
44747;DHT22;30472;49.490;10.972;2023-06-14T12:51:31;24.50;93.20
44747;DHT22;30472;49.490;10.972;2023-06-14T12:53:56;24.40;92.20
44747;DHT22;30472;49.490;10.972;2023-06-14T12:56:22;24.30;93.20
44747;DHT22;30472;49.490;10.972;2023-06-14T12:58:47;24.40;92.80
44747;DHT22;30472;49.490;10.972;2023-06-14T13:01:13;24.40;93.20
44747;DHT22;30472;49.490;10.972;2023-06-14T13:03:38;24.50;92.90
44747;DHT22;30472;49.490;10.972;2023-06-14T13:06:04;24.70;92.50
44747;DHT22;30472;49.490;10.972;2023-06-14T13:08:29;24.30;92.00
44747;DHT22;30472;49.490;10.972;2023-06-14T13:10:55;24.50;92.40
44747;DHT22;30472;49.490;10.972;2023-06-14T13:13:21;24.40;93.10
44747;DHT22;30472;49.490;10.972;2023-06-14T13:15:47;24.20;94.00
44747;DHT22;30472;49.490;10.972;2023-06-14T13:18:14;24.40;94.40
44747;DHT22;30472;49.490;10.972;2023-06-14T13:20:40;24.10;93.80
44747;DHT22;30472;49.490;10.972;2023-06-14T13:23:05;24.00;93.50
44747;DHT22;30472;49.490;10.972;2023-06-14T13:25:36;23.90;93.90
44747;DHT22;30472;49.490;10.972;2023-06-14T13:28:03;24.20;93.70
44747;DHT22;30472;49.490;10.972;2023-06-14T13:30:29;23.90;93.20
44747;DHT22;30472;49.490;10.972;2023-06-14T13:32:55;24.30;93.90
44747;DHT22;30472;49.490;10.972;2023-06-14T13:35:21;24.30;93.10
44747;DHT22;30472;49.490;10.972;2023-06-14T13:37:47;24.50;93.40
44747;DHT22;30472;49.490;10.972;2023-06-14T13:40:13;24.80;93.50
44747;DHT22;30472;49.490;10.972;2023-06-14T13:42:39;25.10;93.50
44747;DHT22;30472;49.490;10.972;2023-06-14T13:45:06;25.20;92.50
44747;DHT22;30472;49.490;10.972;2023-06-14T13:47:32;25.10;92.30
44747;DHT22;30472;49.490;10.972;2023-06-14T13:49:57;24.40;92.70
44747;DHT22;30472;49.490;10.972;2023-06-14T13:52:24;24.60;92.60
44747;DHT22;30472;49.490;10.972;2023-06-14T13:54:49;24.90;93.00
44747;DHT22;30472;49.490;10.972;2023-06-14T13:57:16;25.20;92.40
44747;DHT22;30472;49.490;10.972;2023-06-14T13:59:42;25.20;94.30
44747;DHT22;30472;49.490;10.972;2023-06-14T14:02:10;24.70;93.60
44747;DHT22;30472;49.490;10.972;2023-06-14T14:04:35;24.40;93.70
44747;DHT22;30472;49.490;10.972;2023-06-14T14:07:02;24.40;94.00
44747;DHT22;30472;49.490;10.972;2023-06-14T14:09:28;24.30;93.70
44747;DHT22;30472;49.490;10.972;2023-06-14T14:11:53;24.30;93.10
44747;DHT22;30472;49.490;10.972;2023-06-14T14:14:19;24.80;93.60
44747;DHT22;30472;49.490;10.972;2023-06-14T14:16:44;25.50;93.50
44747;DHT22;30472;49.490;10.972;2023-06-14T14:19:10;25.90;93.20
44747;DHT22;30472;49.490;10.972;2023-06-14T14:21:35;26.20;91.90
44747;DHT22;30472;49.490;10.972;2023-06-14T14:24:01;26.60;92.50
44747;DHT22;30472;49.490;10.972;2023-06-14T14:26:27;26.60;91.00
44747;DHT22;30472;49.490;10.972;2023-06-14T14:28:53;26.40;92.50
44747;DHT22;30472;49.490;10.972;2023-06-14T14:31:19;26.90;90.90
44747;DHT22;30472;49.490;10.972;2023-06-14T14:33:44;26.80;90.70
44747;DHT22;30472;49.490;10.972;2023-06-14T14:36:10;26.30;89.50
44747;DHT22;30472;49.490;10.972;2023-06-14T14:38:35;26.30;90.70
44747;DHT22;30472;49.490;10.972;2023-06-14T14:41:01;26.60;91.10
44747;DHT22;30472;49.490;10.972;2023-06-14T14:43:27;26.90;91.20
44747;DHT22;30472;49.490;10.972;2023-06-14T14:45:55;27.00;90.40
44747;DHT22;30472;49.490;10.972;2023-06-14T14:48:21;27.10;91.00
44747;DHT22;30472;49.490;10.972;2023-06-14T14:50:46;27.10;90.70
44747;DHT22;30472;49.490;10.972;2023-06-14T14:53:12;27.10;90.80
44747;DHT22;30472;49.490;10.972;2023-06-14T14:55:38;26.40;90.60
44747;DHT22;30472;49.490;10.972;2023-06-14T14:58:05;25.70;90.40
44747;DHT22;30472;49.490;10.972;2023-06-14T15:00:32;25.30;91.20
44747;DHT22;30472;49.490;10.972;2023-06-14T15:02:57;24.90;91.50
44747;DHT22;30472;49.490;10.972;2023-06-14T15:05:23;25.30;91.70
44747;DHT22;30472;49.490;10.972;2023-06-14T15:07:48;25.60;90.70
44747;DHT22;30472;49.490;10.972;2023-06-14T15:10:14;25.70;90.50
44747;DHT22;30472;49.490;10.972;2023-06-14T15:12:40;25.40;91.80
44747;DHT22;30472;49.490;10.972;2023-06-14T15:15:05;25.10;90.80
44747;DHT22;30472;49.490;10.972;2023-06-14T15:17:31;25.00;91.20
44747;DHT22;30472;49.490;10.972;2023-06-14T15:19:57;24.80;91.50
44747;DHT22;30472;49.490;10.972;2023-06-14T15:22:22;25.20;91.00
44747;DHT22;30472;49.490;10.972;2023-06-14T15:24:48;24.90;91.50
44747;DHT22;30472;49.490;10.972;2023-06-14T15:27:13;24.60;92.10
44747;DHT22;30472;49.490;10.972;2023-06-14T15:29:41;24.60;91.80
44747;DHT22;30472;49.490;10.972;2023-06-14T15:32:07;24.40;92.50